Almont, North Dakota
Current Conditions -  °F | °C
As of 8:35 PM on Monday 20 Oct 2014 (Local Time) from KY19 Reporting Station
Clear Clear  
Wind Chill: 54°   Ceiling: Unl
Heat Index: 54°   Visibility: 9mi
Dew Point: 34°   Wind: 9mph
Humidity: 47%   Direction: 130°SE
Pressure: 29.94"   Gusts: NA
Location:  46.73°N, 101.5°W
Report Text: KY19 210235Z AUTO 13008KT 9SM CLR 12/01 A2994 RMK AO2
Loading
Personal Weather Stations






























Interactive Weather Map
Tropical Storm Tracking
New forecast layout! Learn more

10-Day Weather Forecast

Advertisements
Track Severe Weather on mobile